Terminal Aerodrome Forecast
Issued by NWS

Home | Current Version | Previous Version | Text Only | Print | Product List | Glossary On
Versions: 1 2 3 4 5 6 7 8 9 10 11 12 13 14 15 16 17 18 19 20 21 22 23 24 25 26 27 28 29 30 31
000
FTUS44 KEWX 190319 AAA
TAFSSF
TAF AMD
KSSF 190319Z 1903/1924 VRB03KT P6SM FEW020 BKN030
     FM190800 17005KT 5SM BR BKN005
     FM191100 21005KT 5SM BR BKN010
     FM191500 22008KT P6SM BKN025
     FM191700 26012KT P6SM SCT040=

USA.gov is the U.S. government's official web portal to all federal, state and local government web resources and services.